This is the latest recevied weather packets stored in our database for station/object VK3BYD-3. If no packets are shown the sender has not sent any weather packets the latest 10 day(s).
| Time | Temp. | Humidity | Pressure | Rain* | Wind** | Luminosity | Snow |
|---|---|---|---|---|---|---|---|
| 1778080801 | 8.33° C | 92% | 1016.2 hPa | 0.51 mm | - | - | - |
| 1778079899 | 8.33° C | 92% | 1016.2 hPa | 0.51 mm | - | - | - |
| 1778079002 | 8.89° C | 92% | 1016.1 hPa | 0.51 mm | - | - | - |
| 1778078096 | 10.56° C | 92% | 1016 hPa | 0.51 mm | - | - | - |
| 1778077196 | 11.11° C | 96% | 1015.4 hPa | 0.51 mm | - | - | - |
| 1778076298 | 11.11° C | 95% | 1015.5 hPa | 0.51 mm | - | - | - |
| 1778075393 | 11.11° C | 95% | 1015.7 hPa | 0.51 mm | - | - | - |
| 1778074491 | 11.11° C | 94% | 1015.6 hPa | 0.76 mm | - | - | - |
| 1778073590 | 11.11° C | 93% | 1016 hPa | 0.51 mm | - | - | - |
| 1778072690 | 11.67° C | 92% | 1016.2 hPa | 0.51 mm | - | - | - |
| 1778071790 | 11.67° C | 90% | 1016.5 hPa | 0.25 mm | - | - | - |
| 1778070891 | 12.22° C | 87% | 1016.9 hPa | 0 mm | - | - | - |
| 1778069990 | 12.22° C | 85% | 1017 hPa | 0 mm | - | - | - |
| 1778069089 | 12.22° C | 84% | 1017.2 hPa | 0 mm | - | - | - |
| 1778068186 | 12.22° C | 84% | 1017.2 hPa | 0 mm | - | - | - |
| 1778067284 | 12.22° C | 85% | 1017.2 hPa | 0 mm | - | - | - |
| 1778066384 | 12.22° C | 85% | 1017.4 hPa | 0 mm | - | - | - |
| 1778065482 | 12.22° C | 85% | 1017.4 hPa | 0 mm | - | - | - |
| 1778064583 | 12.22° C | 86% | 1017.3 hPa | 0 mm | - | - | - |
| 1778063682 | 11.67° C | 87% | 1017.4 hPa | 0 mm | - | - | - |
| 1778062783 | 11.67° C | 87% | 1017.9 hPa | 0 mm | - | - | - |
| 1778061880 | 11.67° C | 87% | 1018 hPa | 0 mm | - | - | - |
| 1778060981 | 11.67° C | 87% | 1018 hPa | 0 mm | - | - | - |
| 1778060080 | 11.67° C | 87% | 1018.2 hPa | 0 mm | - | - | - |
| 1778059178 | 11.67° C | 87% | 1018.1 hPa | 0 mm | - | - | - |
* Rain latest hour (hover to see other rain measurements)
** Current wind speed in m/s (hover to see current wind gust speed)